sensor_id;sensor_type;location;lat;lon;timestamp;P1;durP1;ratioP1;P2;durP2;ratioP2
21827;SDS011;11076;47.942;11.804;2023-06-22T00:01:28;16.73;;;8.07;;
21827;SDS011;11076;47.942;11.804;2023-06-22T00:06:31;19.40;;;9.00;;
21827;SDS011;11076;47.942;11.804;2023-06-22T00:11:33;16.25;;;8.98;;
21827;SDS011;11076;47.942;11.804;2023-06-22T00:16:36;22.23;;;10.65;;
21827;SDS011;11076;47.942;11.804;2023-06-22T00:21:38;22.77;;;10.13;;
21827;SDS011;11076;47.942;11.804;2023-06-22T00:26:41;21.02;;;10.18;;
21827;SDS011;11076;47.942;11.804;2023-06-22T00:31:44;21.38;;;10.10;;
21827;SDS011;11076;47.942;11.804;2023-06-22T00:36:46;21.65;;;10.32;;
21827;SDS011;11076;47.942;11.804;2023-06-22T00:41:49;18.58;;;9.98;;
21827;SDS011;11076;47.942;11.804;2023-06-22T00:46:51;24.75;;;10.88;;
21827;SDS011;11076;47.942;11.804;2023-06-22T00:51:57;25.52;;;11.00;;
21827;SDS011;11076;47.942;11.804;2023-06-22T00:57:01;25.08;;;10.35;;
21827;SDS011;11076;47.942;11.804;2023-06-22T01:02:04;21.65;;;10.45;;
21827;SDS011;11076;47.942;11.804;2023-06-22T01:12:27;20.30;;;9.95;;
21827;SDS011;11076;47.942;11.804;2023-06-22T01:17:35;19.75;;;9.68;;
21827;SDS011;11076;47.942;11.804;2023-06-22T01:22:46;23.17;;;10.20;;
21827;SDS011;11076;47.942;11.804;2023-06-22T01:33:33;22.73;;;11.40;;
21827;SDS011;11076;47.942;11.804;2023-06-22T01:38:37;21.85;;;10.25;;
21827;SDS011;11076;47.942;11.804;2023-06-22T01:43:40;26.05;;;10.15;;
21827;SDS011;11076;47.942;11.804;2023-06-22T01:48:44;18.73;;;9.50;;
21827;SDS011;11076;47.942;11.804;2023-06-22T01:53:47;18.92;;;7.75;;
21827;SDS011;11076;47.942;11.804;2023-06-22T01:58:52;16.92;;;7.28;;
21827;SDS011;11076;47.942;11.804;2023-06-22T02:04:08;18.15;;;8.85;;
21827;SDS011;11076;47.942;11.804;2023-06-22T02:09:15;15.45;;;7.63;;
21827;SDS011;11076;47.942;11.804;2023-06-22T02:14:21;14.23;;;7.40;;
21827;SDS011;11076;47.942;11.804;2023-06-22T02:19:24;23.42;;;8.10;;
21827;SDS011;11076;47.942;11.804;2023-06-22T02:24:27;18.17;;;7.57;;
21827;SDS011;11076;47.942;11.804;2023-06-22T02:29:33;18.15;;;7.68;;
21827;SDS011;11076;47.942;11.804;2023-06-22T02:34:36;11.68;;;6.68;;
21827;SDS011;11076;47.942;11.804;2023-06-22T02:39:39;14.93;;;8.05;;
21827;SDS011;11076;47.942;11.804;2023-06-22T02:44:42;14.50;;;6.97;;
21827;SDS011;11076;47.942;11.804;2023-06-22T02:49:44;12.60;;;7.82;;
21827;SDS011;11076;47.942;11.804;2023-06-22T02:54:48;12.32;;;6.60;;
21827;SDS011;11076;47.942;11.804;2023-06-22T02:59:50;14.98;;;7.72;;
21827;SDS011;11076;47.942;11.804;2023-06-22T03:04:53;19.45;;;8.75;;
21827;SDS011;11076;47.942;11.804;2023-06-22T03:09:55;17.52;;;8.38;;
21827;SDS011;11076;47.942;11.804;2023-06-22T03:14:58;18.05;;;8.02;;
21827;SDS011;11076;47.942;11.804;2023-06-22T03:20:04;17.88;;;7.78;;
21827;SDS011;11076;47.942;11.804;2023-06-22T03:25:11;20.40;;;9.05;;
21827;SDS011;11076;47.942;11.804;2023-06-22T03:30:17;17.40;;;8.80;;
21827;SDS011;11076;47.942;11.804;2023-06-22T03:35:20;17.45;;;8.68;;
21827;SDS011;11076;47.942;11.804;2023-06-22T03:40:23;18.95;;;8.98;;
21827;SDS011;11076;47.942;11.804;2023-06-22T03:45:25;19.60;;;8.38;;
21827;SDS011;11076;47.942;11.804;2023-06-22T03:50:28;15.48;;;8.02;;
21827;SDS011;11076;47.942;11.804;2023-06-22T03:55:33;14.02;;;8.27;;
21827;SDS011;11076;47.942;11.804;2023-06-22T04:00:36;13.07;;;7.88;;
21827;SDS011;11076;47.942;11.804;2023-06-22T04:05:39;17.27;;;8.35;;
21827;SDS011;11076;47.942;11.804;2023-06-22T04:10:41;14.27;;;8.10;;
21827;SDS011;11076;47.942;11.804;2023-06-22T04:15:44;19.42;;;8.32;;
21827;SDS011;11076;47.942;11.804;2023-06-22T04:20:47;15.55;;;8.35;;
21827;SDS011;11076;47.942;11.804;2023-06-22T04:25:49;15.25;;;8.82;;
21827;SDS011;11076;47.942;11.804;2023-06-22T04:30:53;18.15;;;8.75;;
21827;SDS011;11076;47.942;11.804;2023-06-22T04:36:00;20.40;;;8.88;;
21827;SDS011;11076;47.942;11.804;2023-06-22T04:41:03;15.90;;;8.55;;
21827;SDS011;11076;47.942;11.804;2023-06-22T04:46:05;23.15;;;8.95;;
21827;SDS011;11076;47.942;11.804;2023-06-22T04:51:07;16.45;;;8.60;;
21827;SDS011;11076;47.942;11.804;2023-06-22T04:56:10;19.13;;;9.07;;
21827;SDS011;11076;47.942;11.804;2023-06-22T05:01:13;27.48;;;9.68;;
21827;SDS011;11076;47.942;11.804;2023-06-22T05:06:16;18.52;;;9.65;;
21827;SDS011;11076;47.942;11.804;2023-06-22T05:11:19;20.23;;;9.23;;
21827;SDS011;11076;47.942;11.804;2023-06-22T05:16:22;17.38;;;9.32;;
21827;SDS011;11076;47.942;11.804;2023-06-22T05:21:28;12.45;;;8.60;;
21827;SDS011;11076;47.942;11.804;2023-06-22T05:26:31;21.02;;;8.25;;
21827;SDS011;11076;47.942;11.804;2023-06-22T05:31:35;17.02;;;8.80;;
21827;SDS011;11076;47.942;11.804;2023-06-22T05:36:37;19.55;;;9.07;;
21827;SDS011;11076;47.942;11.804;2023-06-22T05:41:39;16.38;;;7.57;;
21827;SDS011;11076;47.942;11.804;2023-06-22T05:46:43;18.15;;;8.85;;
21827;SDS011;11076;47.942;11.804;2023-06-22T05:51:46;19.50;;;8.98;;
21827;SDS011;11076;47.942;11.804;2023-06-22T05:56:48;18.73;;;8.75;;
21827;SDS011;11076;47.942;11.804;2023-06-22T06:01:51;22.40;;;9.90;;
21827;SDS011;11076;47.942;11.804;2023-06-22T06:06:53;16.90;;;8.48;;
21827;SDS011;11076;47.942;11.804;2023-06-22T06:11:56;19.77;;;8.57;;
21827;SDS011;11076;47.942;11.804;2023-06-22T06:16:58;22.90;;;8.63;;
21827;SDS011;11076;47.942;11.804;2023-06-22T06:22:00;16.75;;;8.50;;
21827;SDS011;11076;47.942;11.804;2023-06-22T06:27:03;16.20;;;8.68;;
21827;SDS011;11076;47.942;11.804;2023-06-22T06:32:06;20.23;;;8.65;;
21827;SDS011;11076;47.942;11.804;2023-06-22T06:37:10;19.92;;;8.15;;
21827;SDS011;11076;47.942;11.804;2023-06-22T06:42:12;16.83;;;8.40;;
21827;SDS011;11076;47.942;11.804;2023-06-22T06:47:15;19.70;;;8.15;;
21827;SDS011;11076;47.942;11.804;2023-06-22T06:52:18;24.70;;;8.60;;
21827;SDS011;11076;47.942;11.804;2023-06-22T06:57:22;26.90;;;9.13;;
21827;SDS011;11076;47.942;11.804;2023-06-22T07:02:25;16.58;;;8.65;;
21827;SDS011;11076;47.942;11.804;2023-06-22T07:07:30;22.08;;;8.60;;
21827;SDS011;11076;47.942;11.804;2023-06-22T07:12:32;21.55;;;8.32;;
21827;SDS011;11076;47.942;11.804;2023-06-22T07:17:35;21.33;;;8.85;;
21827;SDS011;11076;47.942;11.804;2023-06-22T07:22:43;25.58;;;9.30;;
21827;SDS011;11076;47.942;11.804;2023-06-22T07:27:57;25.20;;;9.10;;
21827;SDS011;11076;47.942;11.804;2023-06-22T07:33:04;22.10;;;8.35;;
21827;SDS011;11076;47.942;11.804;2023-06-22T07:38:10;21.02;;;8.95;;
21827;SDS011;11076;47.942;11.804;2023-06-22T07:43:12;23.58;;;9.23;;
21827;SDS011;11076;47.942;11.804;2023-06-22T07:48:14;22.08;;;8.57;;
21827;SDS011;11076;47.942;11.804;2023-06-22T07:53:17;24.23;;;8.75;;
21827;SDS011;11076;47.942;11.804;2023-06-22T07:58:19;24.25;;;8.25;;
21827;SDS011;11076;47.942;11.804;2023-06-22T08:03:22;20.73;;;8.93;;
21827;SDS011;11076;47.942;11.804;2023-06-22T08:08:25;20.92;;;8.50;;
21827;SDS011;11076;47.942;11.804;2023-06-22T08:13:27;20.85;;;8.05;;
21827;SDS011;11076;47.942;11.804;2023-06-22T08:18:30;21.35;;;8.88;;
21827;SDS011;11076;47.942;11.804;2023-06-22T08:23:32;23.33;;;8.90;;
21827;SDS011;11076;47.942;11.804;2023-06-22T08:28:34;25.98;;;8.48;;
21827;SDS011;11076;47.942;11.804;2023-06-22T08:33:37;15.63;;;8.38;;
21827;SDS011;11076;47.942;11.804;2023-06-22T08:38:48;20.33;;;9.48;;
21827;SDS011;11076;47.942;11.804;2023-06-22T08:43:53;18.15;;;8.63;;
21827;SDS011;11076;47.942;11.804;2023-06-22T08:48:56;16.75;;;8.15;;
21827;SDS011;11076;47.942;11.804;2023-06-22T08:54:01;19.15;;;7.75;;
21827;SDS011;11076;47.942;11.804;2023-06-22T08:59:04;19.17;;;8.90;;
21827;SDS011;11076;47.942;11.804;2023-06-22T09:04:09;25.30;;;8.20;;
21827;SDS011;11076;47.942;11.804;2023-06-22T09:09:13;18.92;;;7.68;;
21827;SDS011;11076;47.942;11.804;2023-06-22T09:14:16;25.15;;;8.05;;
21827;SDS011;11076;47.942;11.804;2023-06-22T09:19:19;28.95;;;8.85;;
21827;SDS011;11076;47.942;11.804;2023-06-22T09:24:21;25.73;;;8.60;;
21827;SDS011;11076;47.942;11.804;2023-06-22T09:29:24;23.27;;;8.43;;
21827;SDS011;11076;47.942;11.804;2023-06-22T09:34:26;22.15;;;8.50;;
21827;SDS011;11076;47.942;11.804;2023-06-22T09:39:29;17.90;;;8.15;;
21827;SDS011;11076;47.942;11.804;2023-06-22T09:44:32;22.45;;;8.07;;
21827;SDS011;11076;47.942;11.804;2023-06-22T09:49:34;28.10;;;8.38;;
21827;SDS011;11076;47.942;11.804;2023-06-22T09:54:43;22.58;;;8.55;;
21827;SDS011;11076;47.942;11.804;2023-06-22T09:59:45;22.10;;;7.80;;
21827;SDS011;11076;47.942;11.804;2023-06-22T10:04:48;18.17;;;8.07;;
21827;SDS011;11076;47.942;11.804;2023-06-22T10:09:51;28.60;;;8.80;;
21827;SDS011;11076;47.942;11.804;2023-06-22T10:14:53;18.35;;;8.25;;
21827;SDS011;11076;47.942;11.804;2023-06-22T10:19:56;21.08;;;8.25;;
21827;SDS011;11076;47.942;11.804;2023-06-22T10:24:58;22.92;;;7.53;;
21827;SDS011;11076;47.942;11.804;2023-06-22T10:30:01;24.60;;;7.53;;
21827;SDS011;11076;47.942;11.804;2023-06-22T10:35:04;24.05;;;7.57;;
21827;SDS011;11076;47.942;11.804;2023-06-22T10:40:07;20.25;;;7.53;;
21827;SDS011;11076;47.942;11.804;2023-06-22T10:45:10;22.13;;;7.25;;
21827;SDS011;11076;47.942;11.804;2023-06-22T10:50:13;19.90;;;6.93;;
21827;SDS011;11076;47.942;11.804;2023-06-22T10:55:16;16.63;;;6.93;;
21827;SDS011;11076;47.942;11.804;2023-06-22T11:00:18;18.63;;;6.97;;
21827;SDS011;11076;47.942;11.804;2023-06-22T11:05:21;27.27;;;7.40;;
21827;SDS011;11076;47.942;11.804;2023-06-22T11:10:23;21.52;;;7.55;;
21827;SDS011;11076;47.942;11.804;2023-06-22T11:15:25;17.40;;;7.18;;
21827;SDS011;11076;47.942;11.804;2023-06-22T11:20:28;22.08;;;7.20;;
21827;SDS011;11076;47.942;11.804;2023-06-22T11:25:30;24.67;;;7.30;;
21827;SDS011;11076;47.942;11.804;2023-06-22T11:30:33;25.83;;;8.05;;
21827;SDS011;11076;47.942;11.804;2023-06-22T11:35:36;21.77;;;7.80;;
21827;SDS011;11076;47.942;11.804;2023-06-22T11:40:38;21.05;;;7.38;;
21827;SDS011;11076;47.942;11.804;2023-06-22T11:45:40;18.23;;;7.35;;
21827;SDS011;11076;47.942;11.804;2023-06-22T11:50:43;23.33;;;7.80;;
21827;SDS011;11076;47.942;11.804;2023-06-22T11:55:45;19.40;;;7.43;;
21827;SDS011;11076;47.942;11.804;2023-06-22T12:00:48;15.43;;;7.32;;
21827;SDS011;11076;47.942;11.804;2023-06-22T12:05:52;24.88;;;7.05;;
21827;SDS011;11076;47.942;11.804;2023-06-22T12:10:54;21.42;;;6.82;;
21827;SDS011;11076;47.942;11.804;2023-06-22T12:15:57;21.27;;;7.45;;
21827;SDS011;11076;47.942;11.804;2023-06-22T12:20:59;19.70;;;7.18;;
21827;SDS011;11076;47.942;11.804;2023-06-22T12:26:01;20.67;;;7.32;;
21827;SDS011;11076;47.942;11.804;2023-06-22T12:31:04;26.33;;;7.50;;
21827;SDS011;11076;47.942;11.804;2023-06-22T12:36:06;24.02;;;7.20;;
21827;SDS011;11076;47.942;11.804;2023-06-22T12:41:09;20.63;;;7.57;;
21827;SDS011;11076;47.942;11.804;2023-06-22T12:46:11;20.08;;;6.63;;
21827;SDS011;11076;47.942;11.804;2023-06-22T12:51:19;23.13;;;7.00;;
21827;SDS011;11076;47.942;11.804;2023-06-22T12:56:22;21.42;;;7.65;;
21827;SDS011;11076;47.942;11.804;2023-06-22T13:01:25;28.48;;;7.82;;
21827;SDS011;11076;47.942;11.804;2023-06-22T13:06:27;31.33;;;7.57;;
21827;SDS011;11076;47.942;11.804;2023-06-22T13:11:29;22.75;;;6.95;;
21827;SDS011;11076;47.942;11.804;2023-06-22T13:16:32;25.38;;;7.13;;
21827;SDS011;11076;47.942;11.804;2023-06-22T13:21:34;19.38;;;6.97;;
21827;SDS011;11076;47.942;11.804;2023-06-22T13:26:37;19.60;;;6.72;;
21827;SDS011;11076;47.942;11.804;2023-06-22T13:31:39;20.23;;;6.70;;
21827;SDS011;11076;47.942;11.804;2023-06-22T13:36:41;29.95;;;6.45;;
21827;SDS011;11076;47.942;11.804;2023-06-22T13:41:44;21.20;;;7.50;;
21827;SDS011;11076;47.942;11.804;2023-06-22T13:46:46;22.90;;;6.75;;
21827;SDS011;11076;47.942;11.804;2023-06-22T13:51:49;21.88;;;6.15;;
21827;SDS011;11076;47.942;11.804;2023-06-22T13:56:51;26.77;;;7.40;;
21827;SDS011;11076;47.942;11.804;2023-06-22T14:01:54;19.42;;;6.50;;
21827;SDS011;11076;47.942;11.804;2023-06-22T14:06:56;19.88;;;6.78;;
21827;SDS011;11076;47.942;11.804;2023-06-22T14:12:02;19.27;;;5.95;;
21827;SDS011;11076;47.942;11.804;2023-06-22T14:17:07;22.52;;;6.30;;
21827;SDS011;11076;47.942;11.804;2023-06-22T14:22:10;16.67;;;6.20;;
21827;SDS011;11076;47.942;11.804;2023-06-22T14:27:12;20.45;;;5.97;;
21827;SDS011;11076;47.942;11.804;2023-06-22T14:32:15;21.52;;;5.95;;
21827;SDS011;11076;47.942;11.804;2023-06-22T14:37:17;21.65;;;6.65;;
21827;SDS011;11076;47.942;11.804;2023-06-22T14:42:20;19.60;;;6.20;;
21827;SDS011;11076;47.942;11.804;2023-06-22T14:47:23;23.65;;;6.30;;
21827;SDS011;11076;47.942;11.804;2023-06-22T14:52:26;24.67;;;6.68;;
21827;SDS011;11076;47.942;11.804;2023-06-22T14:57:29;20.42;;;6.50;;
21827;SDS011;11076;47.942;11.804;2023-06-22T15:02:31;27.92;;;7.28;;
21827;SDS011;11076;47.942;11.804;2023-06-22T15:07:34;18.88;;;5.30;;
21827;SDS011;11076;47.942;11.804;2023-06-22T15:12:36;21.48;;;6.20;;
21827;SDS011;11076;47.942;11.804;2023-06-22T15:17:39;22.80;;;6.63;;
21827;SDS011;11076;47.942;11.804;2023-06-22T15:22:41;24.55;;;6.57;;
21827;SDS011;11076;47.942;11.804;2023-06-22T15:27:43;17.45;;;6.72;;
21827;SDS011;11076;47.942;11.804;2023-06-22T15:32:46;18.15;;;6.28;;
21827;SDS011;11076;47.942;11.804;2023-06-22T15:37:49;21.40;;;6.63;;
21827;SDS011;11076;47.942;11.804;2023-06-22T15:42:53;15.10;;;6.18;;
21827;SDS011;11076;47.942;11.804;2023-06-22T15:47:55;20.08;;;5.72;;
21827;SDS011;11076;47.942;11.804;2023-06-22T15:52:58;20.83;;;7.10;;
21827;SDS011;11076;47.942;11.804;2023-06-22T15:58:00;17.77;;;6.75;;
21827;SDS011;11076;47.942;11.804;2023-06-22T16:03:03;20.10;;;5.90;;
21827;SDS011;11076;47.942;11.804;2023-06-22T16:08:09;20.95;;;7.25;;
21827;SDS011;11076;47.942;11.804;2023-06-22T16:13:13;20.13;;;6.03;;
21827;SDS011;11076;47.942;11.804;2023-06-22T16:18:17;24.50;;;6.72;;
21827;SDS011;11076;47.942;11.804;2023-06-22T16:23:19;18.90;;;6.85;;
21827;SDS011;11076;47.942;11.804;2023-06-22T16:28:22;17.23;;;6.30;;
21827;SDS011;11076;47.942;11.804;2023-06-22T16:33:25;20.55;;;6.82;;
21827;SDS011;11076;47.942;11.804;2023-06-22T16:38:27;15.20;;;6.13;;
21827;SDS011;11076;47.942;11.804;2023-06-22T16:43:32;18.50;;;6.47;;
21827;SDS011;11076;47.942;11.804;2023-06-22T16:48:35;22.70;;;6.30;;
21827;SDS011;11076;47.942;11.804;2023-06-22T16:53:38;20.33;;;6.88;;
21827;SDS011;11076;47.942;11.804;2023-06-22T16:58:41;18.23;;;6.78;;
21827;SDS011;11076;47.942;11.804;2023-06-22T17:03:48;20.60;;;7.97;;
21827;SDS011;11076;47.942;11.804;2023-06-22T17:09:03;26.60;;;7.18;;
21827;SDS011;11076;47.942;11.804;2023-06-22T17:14:07;23.25;;;6.50;;
21827;SDS011;11076;47.942;11.804;2023-06-22T17:19:09;16.42;;;6.00;;
21827;SDS011;11076;47.942;11.804;2023-06-22T17:24:15;31.05;;;5.18;;
21827;SDS011;11076;47.942;11.804;2023-06-22T18:48:28;16.40;;;6.07;;
21827;SDS011;11076;47.942;11.804;2023-06-22T18:53:31;27.63;;;7.63;;
21827;SDS011;11076;47.942;11.804;2023-06-22T18:58:33;19.70;;;5.78;;
21827;SDS011;11076;47.942;11.804;2023-06-22T19:03:35;20.02;;;6.68;;
21827;SDS011;11076;47.942;11.804;2023-06-22T19:14:20;18.70;;;5.80;;
21827;SDS011;11076;47.942;11.804;2023-06-22T19:19:23;16.23;;;5.60;;
21827;SDS011;11076;47.942;11.804;2023-06-22T19:24:30;16.67;;;6.05;;
21827;SDS011;11076;47.942;11.804;2023-06-22T19:29:33;20.60;;;6.00;;
21827;SDS011;11076;47.942;11.804;2023-06-22T19:34:40;14.35;;;5.00;;
21827;SDS011;11076;47.942;11.804;2023-06-22T19:39:47;13.48;;;5.32;;
21827;SDS011;11076;47.942;11.804;2023-06-22T19:44:50;16.90;;;5.35;;
21827;SDS011;11076;47.942;11.804;2023-06-22T19:49:59;18.48;;;5.28;;
21827;SDS011;11076;47.942;11.804;2023-06-22T19:55:02;14.30;;;5.95;;
21827;SDS011;11076;47.942;11.804;2023-06-22T20:00:06;19.77;;;6.63;;
21827;SDS011;11076;47.942;11.804;2023-06-22T20:05:19;14.20;;;5.82;;
21827;SDS011;11076;47.942;11.804;2023-06-22T20:10:22;20.70;;;5.70;;
21827;SDS011;11076;47.942;11.804;2023-06-22T20:15:25;17.55;;;5.60;;
21827;SDS011;11076;47.942;11.804;2023-06-22T20:20:29;11.35;;;3.90;;
21827;SDS011;11076;47.942;11.804;2023-06-22T20:25:35;15.77;;;5.90;;
21827;SDS011;11076;47.942;11.804;2023-06-22T20:30:40;15.80;;;5.18;;
21827;SDS011;11076;47.942;11.804;2023-06-22T20:35:44;19.73;;;5.85;;
21827;SDS011;11076;47.942;11.804;2023-06-22T20:40:52;16.70;;;5.75;;
21827;SDS011;11076;47.942;11.804;2023-06-22T20:45:54;15.25;;;5.55;;
21827;SDS011;11076;47.942;11.804;2023-06-22T20:50:57;21.45;;;6.13;;
21827;SDS011;11076;47.942;11.804;2023-06-22T20:55:59;14.73;;;5.32;;
21827;SDS011;11076;47.942;11.804;2023-06-22T21:01:02;13.50;;;5.57;;
21827;SDS011;11076;47.942;11.804;2023-06-22T21:06:05;13.00;;;5.82;;
21827;SDS011;11076;47.942;11.804;2023-06-22T21:11:07;16.25;;;6.28;;
21827;SDS011;11076;47.942;11.804;2023-06-22T21:16:09;14.07;;;6.43;;
21827;SDS011;11076;47.942;11.804;2023-06-22T21:21:12;12.80;;;5.82;;
21827;SDS011;11076;47.942;11.804;2023-06-22T21:26:14;11.15;;;4.05;;
21827;SDS011;11076;47.942;11.804;2023-06-22T21:31:17;21.33;;;6.00;;
21827;SDS011;11076;47.942;11.804;2023-06-22T21:36:20;10.00;;;4.53;;
21827;SDS011;11076;47.942;11.804;2023-06-22T21:41:22;10.52;;;5.13;;
21827;SDS011;11076;47.942;11.804;2023-06-22T21:46:25;17.38;;;4.60;;
21827;SDS011;11076;47.942;11.804;2023-06-22T21:51:27;14.85;;;5.65;;
21827;SDS011;11076;47.942;11.804;2023-06-22T21:56:30;10.05;;;4.72;;
